Eagle County Regional Airport
KEGE : now visible

Airfield :











YOU CAN JOIN US ON...

 
LOGIN :

Register | Disclaimer

   EN    FR    IT 

 









Legend :    VFR   Marginal VFR   IFR   Intensive IFR   Very Intensive IFR
Visi :
Ceiling :
>= 8 km
>= 3000ft
5 to 8 km
1000 to 3000 ft
1500m to 5 km
500 to 1000 ft
800 to 1500m
200 to 500 ft
< 800m
< 200 ft
Symbols :   Thunderstorms  Fog  Heavy snow  Heavy precipitations  Wind > 20 kt







- Airport Elevation : 6548 ft
- IATA code : EGE


KEGE - Eagle County Regional

CURRENT METAR :
  • 201556Z 00000KT 10SM CLR 18/03 A2997 RMK AO2 SLP093 T01830033

EXPIRED METARs :
  • 201456Z VRB03KT 10SM FEW080 13/02 A2999 RMK AO2 SLP106 T01280022 58002
  • 201356Z 08003KT 10SM CLR 09/02 A3001 RMK AO2 SLP112 T00890017

TAF KEGE
Valid from the 20 at 12:00 until the 21 at 12:00 UTC


201120Z 2012/2112 00000KT P6SM FEW100
FM201700 22014G25KT P6SM FEW250
FM202100 24018G32KT P6SM FEW120 SCT150
FM210100 24013G20KT P6SM SCT250
FM210300 23006KT P6SM FEW200
No reported NOTAMs for that airfield.



MET'MAP, your aeronautical weather chart ! - Copyright ORBIFLY December 2007 - Disclaimer

ORBIFLY MET'MAP TEAM :

Programming & Development : Alexandra Zaïnal
Concept & Development : Baudouin d'Aumeries
Co-Development & Prog : Marc-Olivier Méhu
Technical & hardware support : Manuel Goepfert

Contact : metmap@orbifly.com




SOURCES & CREDITS :

   NOAA       Earth
Advisory